createdAt,value
2019-05-01T00:01:00.088Z,9.90
2019-05-01T00:02:08.682Z,9.89
2019-05-01T00:03:17.563Z,9.87
2019-05-01T00:04:26.079Z,9.86
2019-05-01T00:05:20.370Z,9.85
2019-05-01T00:06:11.337Z,9.84
2019-05-01T00:07:03.443Z,9.82
2019-05-01T00:07:54.458Z,9.81
2019-05-01T00:08:44.699Z,9.81
2019-05-01T00:09:34.850Z,9.81
2019-05-01T00:10:26.070Z,9.82
2019-05-01T00:11:16.571Z,9.82
2019-05-01T00:12:09.056Z,9.79
2019-05-01T00:13:00.213Z,9.79
2019-05-01T00:13:51.359Z,9.79
2019-05-01T00:14:42.042Z,9.78
2019-05-01T00:15:32.902Z,9.78
2019-05-01T00:16:23.781Z,9.77
2019-05-01T00:17:14.286Z,9.78
2019-05-01T00:18:04.789Z,9.78
2019-05-01T00:18:55.001Z,9.78
2019-05-01T00:19:45.698Z,9.78
2019-05-01T00:20:36.699Z,9.77
2019-05-01T00:21:27.263Z,9.76
2019-05-01T00:22:17.899Z,9.74
2019-05-01T00:23:07.990Z,9.75
2019-05-01T00:23:58.960Z,9.74
2019-05-01T00:24:48.963Z,9.74
2019-05-01T00:25:39.415Z,9.73
2019-05-01T00:26:29.918Z,9.73
2019-05-01T00:27:20.071Z,9.73
2019-05-01T00:28:10.597Z,9.73
2019-05-01T00:29:01.243Z,9.73
2019-05-01T00:29:51.847Z,9.73
2019-05-01T00:30:42.016Z,9.74
2019-05-01T00:31:32.643Z,9.73
2019-05-01T00:32:24.625Z,9.74
2019-05-01T00:33:15.061Z,9.74
2019-05-01T00:34:06.336Z,9.73
2019-05-01T00:34:56.565Z,9.72
2019-05-01T00:35:47.191Z,9.71
2019-05-01T00:36:37.393Z,9.71
2019-05-01T00:37:28.163Z,9.72
2019-05-01T00:38:18.971Z,9.71
2019-05-01T00:39:09.396Z,9.71
2019-05-01T00:40:00.552Z,9.70
2019-05-01T00:40:51.184Z,9.71
2019-05-01T00:41:42.715Z,9.70
2019-05-01T00:42:33.565Z,9.70
2019-05-01T00:43:24.215Z,9.70
2019-05-01T00:44:15.559Z,9.70
2019-05-01T00:45:06.471Z,9.70
2019-05-01T00:45:57.283Z,9.69
2019-05-01T00:46:47.604Z,9.70
2019-05-01T00:47:38.890Z,9.70
2019-05-01T00:48:29.519Z,9.70
2019-05-01T00:49:19.976Z,9.69
2019-05-01T00:50:11.466Z,9.70
2019-05-01T00:51:03.026Z,9.69
2019-05-01T00:51:54.598Z,9.68
2019-05-01T00:52:45.203Z,9.68
2019-05-01T00:53:35.361Z,9.67
2019-05-01T00:54:26.400Z,9.67
2019-05-01T00:55:42.520Z,9.66
2019-05-01T00:56:55.715Z,9.66
2019-05-01T00:58:00.557Z,9.65
2019-05-01T00:59:09.314Z,9.63
2019-05-01T01:00:13.070Z,9.63
2019-05-01T01:01:13.329Z,9.62
2019-05-01T01:02:13.753Z,9.62
2019-05-01T01:03:04.894Z,9.60
2019-05-01T01:03:56.043Z,9.58
2019-05-01T01:04:46.005Z,9.57
2019-05-01T01:05:37.396Z,9.55
2019-05-01T01:06:28.230Z,9.56
2019-05-01T01:07:20.064Z,9.55
2019-05-01T01:08:10.705Z,9.55
2019-05-01T01:09:01.207Z,9.53
2019-05-01T01:09:52.405Z,9.52
2019-05-01T01:10:43.621Z,9.51
2019-05-01T01:11:34.573Z,9.52
2019-05-01T01:12:25.759Z,9.50
2019-05-01T01:13:16.105Z,9.48
2019-05-01T01:14:06.762Z,9.47
2019-05-01T01:14:57.193Z,9.48
2019-05-01T01:15:47.553Z,9.48
2019-05-01T01:16:38.491Z,9.47
2019-05-01T01:17:29.386Z,9.46
2019-05-01T01:18:19.714Z,9.45
2019-05-01T01:19:11.019Z,9.45
2019-05-01T01:20:01.375Z,9.45
2019-05-01T01:20:51.614Z,9.44
2019-05-01T01:21:42.256Z,9.44
2019-05-01T01:22:32.749Z,9.43
2019-05-01T01:23:23.766Z,9.43
2019-05-01T01:24:14.484Z,9.43
2019-05-01T01:25:05.887Z,9.42
2019-05-01T01:25:57.070Z,9.43
2019-05-01T01:26:48.275Z,9.43
2019-05-01T01:27:39.121Z,9.44
2019-05-01T01:28:29.231Z,9.42
2019-05-01T01:29:21.028Z,9.42
2019-05-01T01:30:12.531Z,9.40
2019-05-01T01:31:02.640Z,9.40
2019-05-01T01:31:53.350Z,9.39
2019-05-01T01:32:44.312Z,9.39
2019-05-01T01:33:35.310Z,9.39
2019-05-01T01:34:25.506Z,9.39
2019-05-01T01:35:16.400Z,9.38
2019-05-01T01:36:07.789Z,9.37
2019-05-01T01:36:58.717Z,9.39
2019-05-01T01:37:48.986Z,9.38
2019-05-01T01:38:39.803Z,9.37
2019-05-01T01:39:30.591Z,9.37
2019-05-01T01:40:21.496Z,9.35
2019-05-01T01:41:11.566Z,9.36
2019-05-01T01:42:01.741Z,9.35
2019-05-01T01:42:52.082Z,9.34
2019-05-01T01:43:50.983Z,9.34
2019-05-01T01:44:47.359Z,9.34
2019-05-01T01:45:41.866Z,9.34
2019-05-01T01:46:32.560Z,9.33
2019-05-01T01:47:22.869Z,9.33
2019-05-01T01:48:15.374Z,9.33
2019-05-01T01:49:06.724Z,9.32
2019-05-01T01:49:56.924Z,9.32
2019-05-01T01:50:48.190Z,9.33
2019-05-01T01:51:38.376Z,9.32
2019-05-01T01:52:28.804Z,9.33
2019-05-01T01:53:19.013Z,9.33
2019-05-01T01:54:10.612Z,9.34
2019-05-01T01:55:01.766Z,9.35
2019-05-01T01:55:52.633Z,9.33
2019-05-01T01:56:42.983Z,9.34
2019-05-01T01:57:34.371Z,9.35
2019-05-01T01:58:24.336Z,9.36
2019-05-01T01:59:15.244Z,9.37
2019-05-01T02:00:05.855Z,9.36
2019-05-01T02:01:22.094Z,9.37
2019-05-01T02:02:35.275Z,9.36
2019-05-01T02:03:25.699Z,9.35
2019-05-01T02:04:27.124Z,9.35
2019-05-01T02:05:30.273Z,9.34
2019-05-01T02:06:20.409Z,9.34
2019-05-01T02:07:11.142Z,9.34
2019-05-01T02:08:01.928Z,9.33
2019-05-01T02:08:56.606Z,9.32
2019-05-01T02:09:43.189Z,9.32
2019-05-01T02:10:42.609Z,9.31
2019-05-01T02:11:28.040Z,9.30
2019-05-01T02:12:18.705Z,9.29
2019-05-01T02:13:09.867Z,9.28
2019-05-01T02:14:00.881Z,9.28
2019-05-01T02:14:51.586Z,9.27
2019-05-01T02:15:41.442Z,9.27
2019-05-01T02:16:32.166Z,9.26
2019-05-01T02:17:22.483Z,9.26
2019-05-01T02:18:13.410Z,9.25
2019-05-01T02:19:03.618Z,9.23
2019-05-01T02:19:53.828Z,9.23
2019-05-01T02:20:45.110Z,9.22
2019-05-01T02:21:35.060Z,9.22
2019-05-01T02:22:26.230Z,9.21
2019-05-01T02:23:17.404Z,9.21
2019-05-01T02:24:07.555Z,9.20
2019-05-01T02:24:57.898Z,9.21
2019-05-01T02:25:48.826Z,9.20
2019-05-01T02:26:41.637Z,9.20
2019-05-01T02:27:54.047Z,9.20
2019-05-01T02:28:52.796Z,9.20
2019-05-01T02:29:46.834Z,9.21
2019-05-01T02:30:39.186Z,9.20
2019-05-01T02:31:35.527Z,9.20
2019-05-01T02:32:26.231Z,9.19
2019-05-01T02:33:16.704Z,9.21
2019-05-01T02:34:07.166Z,9.19
2019-05-01T02:34:58.247Z,9.20
2019-05-01T02:35:49.375Z,9.20
2019-05-01T02:36:40.054Z,9.21
2019-05-01T02:37:31.289Z,9.21
2019-05-01T02:38:21.371Z,9.22
2019-05-01T02:39:12.395Z,9.22
2019-05-01T02:40:03.816Z,9.23
2019-05-01T02:40:54.306Z,9.24
2019-05-01T02:41:44.644Z,9.26
2019-05-01T02:42:35.420Z,9.26
2019-05-01T02:43:26.326Z,9.26
2019-05-01T02:44:37.805Z,9.26
2019-05-01T02:45:29.633Z,9.27
2019-05-01T02:46:19.764Z,9.28
2019-05-01T02:47:10.748Z,9.28
2019-05-01T02:48:00.957Z,9.28
2019-05-01T02:48:56.349Z,9.28
2019-05-01T02:49:52.532Z,9.29
2019-05-01T02:50:43.018Z,9.29
2019-05-01T02:51:34.283Z,9.29
2019-05-01T02:52:24.779Z,9.30
2019-05-01T02:53:15.375Z,9.30
2019-05-01T02:54:05.872Z,9.31
2019-05-01T02:54:56.826Z,9.32
2019-05-01T02:56:07.056Z,9.33
2019-05-01T02:57:01.090Z,9.33
2019-05-01T02:57:52.447Z,9.35
2019-05-01T02:58:43.416Z,9.35
2019-05-01T02:59:34.705Z,9.35
2019-05-01T03:00:26.547Z,9.37
2019-05-01T03:01:16.795Z,9.36
2019-05-01T03:02:07.625Z,9.38
2019-05-01T03:02:58.249Z,9.39
2019-05-01T03:03:48.490Z,9.40
2019-05-01T03:04:38.717Z,9.39
2019-05-01T03:05:29.794Z,9.40
2019-05-01T03:06:20.929Z,9.40
2019-05-01T03:07:11.515Z,9.40
2019-05-01T03:08:01.173Z,9.42
2019-05-01T03:08:51.601Z,9.42
2019-05-01T03:09:42.929Z,9.42
2019-05-01T03:10:33.024Z,9.43
2019-05-01T03:11:23.666Z,9.44
2019-05-01T03:12:14.593Z,9.45
2019-05-01T03:13:05.080Z,9.45
2019-05-01T03:13:56.884Z,9.46
2019-05-01T03:14:47.097Z,9.46
2019-05-01T03:15:37.529Z,9.47
2019-05-01T03:16:28.544Z,9.47
2019-05-01T03:17:38.506Z,9.47
2019-05-01T03:18:33.679Z,9.47
2019-05-01T03:19:42.811Z,9.47
2019-05-01T03:20:38.956Z,9.47
2019-05-01T03:21:45.797Z,9.46
2019-05-01T03:22:41.706Z,9.46
2019-05-01T03:23:38.470Z,9.47
2019-05-01T03:24:28.911Z,9.46
2019-05-01T03:25:19.966Z,9.46
2019-05-01T03:26:10.065Z,9.46
2019-05-01T03:27:00.174Z,9.46
2019-05-01T03:27:51.143Z,9.45
2019-05-01T03:28:41.732Z,9.45
2019-05-01T03:29:31.846Z,9.44
2019-05-01T03:30:21.974Z,9.44
2019-05-01T03:31:12.042Z,9.44
2019-05-01T03:32:16.792Z,9.44
2019-05-01T03:32:54.041Z,9.44
2019-05-01T03:33:44.550Z,9.43
2019-05-01T03:34:35.507Z,9.44
2019-05-01T03:35:26.154Z,9.44
2019-05-01T03:36:16.440Z,9.45
2019-05-01T03:37:06.967Z,9.42
2019-05-01T03:37:57.157Z,9.41
2019-05-01T03:38:47.948Z,9.41
2019-05-01T03:39:39.361Z,9.40
2019-05-01T03:40:30.619Z,9.40
2019-05-01T03:41:20.941Z,9.40
2019-05-01T03:42:11.912Z,9.40
2019-05-01T03:43:02.626Z,9.39
2019-05-01T03:43:55.714Z,9.38
2019-05-01T03:44:46.235Z,9.39
2019-05-01T03:45:36.826Z,9.38
2019-05-01T03:46:27.526Z,9.39
2019-05-01T03:47:18.173Z,9.39
2019-05-01T03:48:08.553Z,9.39
2019-05-01T03:49:02.587Z,9.40
2019-05-01T03:49:53.160Z,9.39
2019-05-01T03:50:46.552Z,9.39
2019-05-01T03:51:34.148Z,9.38
2019-05-01T03:52:24.866Z,9.38
2019-05-01T03:53:17.383Z,9.37
2019-05-01T03:54:07.774Z,9.37
2019-05-01T03:54:59.722Z,9.37
2019-05-01T03:55:50.508Z,9.35
2019-05-01T03:56:40.672Z,9.35
2019-05-01T03:57:30.956Z,9.34
2019-05-01T03:58:22.234Z,9.34
2019-05-01T03:59:13.750Z,9.34
2019-05-01T04:00:04.902Z,9.33
2019-05-01T04:01:01.877Z,9.32
2019-05-01T04:01:57.851Z,9.31
2019-05-01T04:03:08.234Z,9.31
2019-05-01T04:04:02.462Z,9.31
2019-05-01T04:04:53.572Z,9.30
2019-05-01T04:05:44.590Z,9.30
2019-05-01T04:06:35.134Z,9.29
2019-05-01T04:07:25.500Z,9.28
2019-05-01T04:08:16.697Z,9.28
2019-05-01T04:09:07.335Z,9.28
2019-05-01T04:09:58.219Z,9.28
2019-05-01T04:10:49.371Z,9.28
2019-05-01T04:11:40.867Z,9.28
2019-05-01T04:12:31.617Z,9.28
2019-05-01T04:13:21.507Z,9.29
2019-05-01T04:14:12.964Z,9.28
2019-05-01T04:15:03.589Z,9.29
2019-05-01T04:15:54.015Z,9.29
2019-05-01T04:16:45.641Z,9.28
2019-05-01T04:17:43.981Z,9.28
2019-05-01T04:18:36.792Z,9.29
2019-05-01T04:19:29.415Z,9.29
2019-05-01T04:20:20.250Z,9.29
2019-05-01T04:21:11.177Z,9.30
2019-05-01T04:22:06.331Z,9.30
2019-05-01T04:22:57.366Z,9.31
2019-05-01T04:23:50.810Z,9.32
2019-05-01T04:24:42.630Z,9.34
2019-05-01T04:25:32.940Z,9.34
2019-05-01T04:26:23.170Z,9.36
2019-05-01T04:27:18.709Z,9.38
2019-05-01T04:28:29.035Z,9.39
2019-05-01T04:29:37.747Z,9.39
2019-05-01T04:30:32.818Z,9.40
2019-05-01T04:31:41.777Z,9.40
2019-05-01T04:32:51.127Z,9.41
2019-05-01T04:33:24.975Z,9.41
2019-05-01T04:34:20.798Z,9.42
2019-05-01T04:35:20.427Z,9.42
2019-05-01T04:36:16.476Z,9.43
2019-05-01T04:37:09.022Z,9.44
2019-05-01T04:37:59.659Z,9.46
2019-05-01T04:38:49.898Z,9.46
2019-05-01T04:39:40.346Z,9.47
2019-05-01T04:40:30.909Z,9.47
2019-05-01T04:41:22.147Z,9.48
2019-05-01T04:42:14.242Z,9.49
2019-05-01T04:43:05.397Z,9.51
2019-05-01T04:43:57.013Z,9.52
2019-05-01T04:44:48.499Z,9.53
2019-05-01T04:45:39.911Z,9.54
2019-05-01T04:46:30.137Z,9.55
2019-05-01T04:47:20.476Z,9.55
2019-05-01T04:48:12.030Z,9.56
2019-05-01T04:49:04.188Z,9.58
2019-05-01T04:49:55.077Z,9.59
2019-05-01T04:50:46.837Z,9.60
2019-05-01T04:51:39.414Z,9.61
2019-05-01T04:52:30.257Z,9.63
2019-05-01T04:53:21.911Z,9.64
2019-05-01T04:54:12.270Z,9.66
2019-05-01T04:55:02.536Z,9.66
2019-05-01T04:55:52.775Z,9.68
2019-05-01T04:56:45.133Z,9.69
2019-05-01T04:57:36.051Z,9.71
2019-05-01T04:58:27.351Z,9.73
2019-05-01T04:59:17.896Z,9.74
2019-05-01T05:00:09.110Z,9.75
2019-05-01T05:00:59.826Z,9.77
2019-05-01T05:02:08.413Z,9.78
2019-05-01T05:03:05.819Z,9.79
2019-05-01T05:03:56.239Z,9.81
2019-05-01T05:04:47.209Z,9.83
2019-05-01T05:05:37.838Z,9.84
2019-05-01T05:06:27.973Z,9.85
2019-05-01T05:07:18.879Z,9.86
2019-05-01T05:08:10.015Z,9.86
2019-05-01T05:09:00.317Z,9.88
2019-05-01T05:09:50.532Z,9.90
2019-05-01T05:10:41.652Z,9.90
2019-05-01T05:11:46.936Z,9.91
2019-05-01T05:12:44.063Z,9.92
2019-05-01T05:13:46.704Z,9.92
2019-05-01T05:14:33.541Z,9.93
2019-05-01T05:15:49.710Z,9.94
2019-05-01T05:16:45.418Z,9.95
2019-05-01T05:17:35.372Z,9.97
2019-05-01T05:18:25.996Z,9.97
2019-05-01T05:19:16.014Z,9.98
2019-05-01T05:20:06.560Z,9.98
2019-05-01T05:20:57.733Z,10.00
2019-05-01T05:21:48.733Z,10.00
2019-05-01T05:22:39.213Z,10.01
2019-05-01T05:23:30.411Z,10.03
2019-05-01T05:24:20.714Z,10.04
2019-05-01T05:25:12.192Z,10.06
2019-05-01T05:26:02.735Z,10.06
2019-05-01T05:26:53.981Z,10.08
2019-05-01T05:27:46.195Z,10.09
2019-05-01T05:28:36.316Z,10.11
2019-05-01T05:29:27.154Z,10.14
2019-05-01T05:30:18.568Z,10.15
2019-05-01T05:31:09.053Z,10.17
2019-05-01T05:31:59.673Z,10.18
2019-05-01T05:32:49.916Z,10.20
2019-05-01T05:33:41.408Z,10.22
2019-05-01T05:34:32.217Z,10.23
2019-05-01T05:35:22.365Z,10.26
2019-05-01T05:36:14.171Z,10.27
2019-05-01T05:37:11.351Z,10.30
2019-05-01T05:38:12.338Z,10.31
2019-05-01T05:39:18.873Z,10.33
2019-05-01T05:40:09.821Z,10.36
2019-05-01T05:41:00.995Z,10.37
2019-05-01T05:41:51.688Z,10.39
2019-05-01T05:42:41.569Z,10.41
2019-05-01T05:43:33.253Z,10.40
2019-05-01T05:44:23.887Z,10.41
2019-05-01T05:45:14.199Z,10.42
2019-05-01T05:46:05.571Z,10.43
2019-05-01T05:46:56.753Z,10.44
2019-05-01T05:47:47.739Z,10.45
2019-05-01T05:48:38.323Z,10.45
2019-05-01T05:49:28.605Z,10.48
2019-05-01T05:50:20.124Z,10.49
2019-05-01T05:51:17.118Z,10.51
2019-05-01T05:52:22.713Z,10.53
2019-05-01T05:53:13.240Z,10.56
2019-05-01T05:54:24.199Z,10.58
2019-05-01T05:55:37.355Z,10.61
2019-05-01T05:56:30.301Z,10.63
2019-05-01T05:57:25.113Z,10.65
2019-05-01T05:58:20.249Z,10.66
2019-05-01T05:59:13.253Z,10.66
2019-05-01T06:00:27.167Z,10.68
2019-05-01T06:01:36.122Z,10.71
2019-05-01T06:02:35.806Z,10.72
2019-05-01T06:04:05.010Z,10.73
2019-05-01T06:05:05.400Z,10.74
2019-05-01T06:06:10.548Z,10.75
2019-05-01T06:07:19.277Z,10.77
2019-05-01T06:08:15.638Z,10.79
2019-05-01T06:09:08.903Z,10.81
2019-05-01T06:10:28.803Z,10.83
2019-05-01T06:11:36.471Z,10.84
2019-05-01T06:12:46.760Z,10.87
2019-05-01T06:13:56.985Z,10.88
2019-05-01T06:14:51.642Z,10.90
2019-05-01T06:15:54.257Z,10.93
2019-05-01T06:17:13.058Z,10.93
2019-05-01T06:18:17.718Z,10.95
2019-05-01T06:19:25.891Z,10.97
2019-05-01T06:20:30.152Z,10.99
2019-05-01T06:21:28.433Z,11.00
2019-05-01T06:22:36.231Z,11.00
2019-05-01T06:23:46.844Z,11.02
2019-05-01T06:24:40.555Z,11.03
2019-05-01T06:25:33.510Z,11.03
2019-05-01T06:26:31.943Z,11.03
2019-05-01T06:27:20.203Z,11.05
2019-05-01T06:28:11.215Z,11.07
2019-05-01T06:29:02.410Z,11.08
2019-05-01T06:29:52.753Z,11.08
2019-05-01T06:30:47.160Z,11.10
2019-05-01T06:31:36.107Z,11.12
2019-05-01T06:32:28.809Z,11.14
2019-05-01T06:33:17.234Z,11.17
2019-05-01T06:34:08.447Z,11.19
2019-05-01T06:35:03.183Z,11.22
2019-05-01T06:35:50.538Z,11.26
2019-05-01T06:36:44.382Z,11.29
2019-05-01T06:38:00.688Z,11.33
2019-05-01T06:38:49.116Z,11.36
2019-05-01T06:39:42.993Z,11.43
2019-05-01T06:40:43.680Z,11.46
2019-05-01T06:41:42.290Z,11.48
2019-05-01T06:42:28.710Z,11.52
2019-05-01T06:43:43.713Z,11.56
2019-05-01T06:44:44.208Z,11.60
2019-05-01T06:45:32.373Z,11.65
2019-05-01T06:46:45.773Z,11.68
2019-05-01T06:47:43.355Z,11.72
2019-05-01T06:48:33.526Z,11.78
2019-05-01T06:49:39.134Z,11.81
2019-05-01T06:50:41.535Z,11.85
2019-05-01T06:51:59.337Z,11.88
2019-05-01T06:52:52.421Z,11.92
2019-05-01T06:53:42.519Z,11.96
2019-05-01T06:54:33.599Z,11.98
2019-05-01T06:55:27.227Z,12.01
2019-05-01T06:56:16.031Z,12.03
2019-05-01T06:57:07.073Z,12.05
2019-05-01T06:57:57.076Z,12.09
2019-05-01T06:58:51.053Z,12.13
2019-05-01T06:59:38.515Z,12.15
2019-05-01T07:00:29.467Z,12.16
2019-05-01T07:01:23.732Z,12.20
2019-05-01T07:02:11.233Z,12.22
2019-05-01T07:03:06.011Z,12.24
2019-05-01T07:04:03.400Z,12.26
2019-05-01T07:04:45.547Z,12.28
2019-05-01T07:05:36.077Z,12.29
2019-05-01T07:06:31.194Z,12.32
2019-05-01T07:07:25.316Z,12.32
2019-05-01T07:08:09.882Z,12.34
2019-05-01T07:09:00.353Z,12.34
2019-05-01T07:09:54.031Z,12.35
2019-05-01T07:10:45.937Z,12.35
2019-05-01T07:11:35.094Z,12.35
2019-05-01T07:12:28.266Z,12.34
2019-05-01T07:13:19.638Z,12.32
2019-05-01T07:14:11.151Z,12.31
2019-05-01T07:15:01.644Z,12.29
2019-05-01T07:15:58.386Z,12.29
2019-05-01T07:16:44.309Z,12.27
2019-05-01T07:17:35.420Z,12.26
2019-05-01T07:18:29.070Z,12.24
2019-05-01T07:19:17.086Z,12.23
2019-05-01T07:20:19.005Z,12.21
2019-05-01T07:21:10.377Z,12.18
2019-05-01T07:22:06.323Z,12.17
2019-05-01T07:22:56.154Z,12.15
2019-05-01T07:23:47.800Z,12.15
2019-05-01T07:24:41.714Z,12.15
2019-05-01T07:25:34.823Z,12.15
2019-05-01T07:26:22.887Z,12.16
2019-05-01T07:27:12.850Z,12.19
2019-05-01T07:28:05.253Z,12.19
2019-05-01T07:28:57.133Z,12.20
2019-05-01T07:29:48.282Z,12.22
2019-05-01T07:30:59.317Z,12.23
2019-05-01T07:31:49.857Z,12.27
2019-05-01T07:32:41.097Z,12.29
2019-05-01T07:33:32.120Z,12.31
2019-05-01T07:34:27.346Z,12.32
2019-05-01T07:35:17.109Z,12.35
2019-05-01T07:36:15.527Z,12.36
2019-05-01T07:37:00.673Z,12.38
2019-05-01T07:37:57.655Z,12.40
2019-05-01T07:38:45.497Z,12.43
2019-05-01T07:39:37.212Z,12.47
2019-05-01T07:40:30.006Z,12.52
2019-05-01T07:41:19.546Z,12.57
2019-05-01T07:42:28.941Z,12.61
2019-05-01T07:43:45.019Z,12.65
2019-05-01T07:44:40.097Z,12.73
2019-05-01T07:45:43.508Z,12.81
2019-05-01T07:46:56.323Z,12.86
2019-05-01T07:47:46.661Z,12.94
2019-05-01T07:48:41.513Z,13.02
2019-05-01T07:49:52.779Z,13.07
2019-05-01T07:50:40.953Z,13.10
2019-05-01T07:51:31.046Z,13.16
2019-05-01T07:52:22.201Z,13.19
2019-05-01T07:53:12.688Z,13.22
2019-05-01T07:54:08.653Z,13.25
2019-05-01T07:54:56.175Z,13.27
2019-05-01T07:55:48.611Z,13.29
2019-05-01T07:56:38.000Z,13.30
2019-05-01T07:57:28.471Z,13.33
2019-05-01T07:58:19.557Z,13.35
2019-05-01T07:59:10.388Z,13.35
2019-05-01T08:00:03.751Z,13.36
2019-05-01T08:01:18.309Z,13.37
2019-05-01T08:02:09.738Z,13.38
2019-05-01T08:03:02.619Z,13.39
2019-05-01T08:03:52.087Z,13.39
2019-05-01T08:04:42.645Z,13.39
2019-05-01T08:05:32.907Z,13.39
2019-05-01T08:06:23.553Z,13.39
2019-05-01T08:07:13.679Z,13.40
2019-05-01T08:08:07.899Z,13.43
2019-05-01T08:08:53.914Z,13.43
2019-05-01T08:09:45.878Z,13.44
2019-05-01T08:10:36.295Z,13.47
2019-05-01T08:11:26.864Z,13.49
2019-05-01T08:12:18.918Z,13.52
2019-05-01T08:13:08.292Z,13.56
2019-05-01T08:14:07.321Z,13.58
2019-05-01T08:14:52.490Z,13.62
2019-05-01T08:15:40.659Z,13.67
2019-05-01T08:16:31.385Z,13.70
2019-05-01T08:17:21.585Z,13.76
2019-05-01T08:18:17.703Z,13.81
2019-05-01T08:19:18.638Z,13.85
2019-05-01T08:20:23.064Z,13.88
2019-05-01T08:21:33.188Z,13.93
2019-05-01T08:22:31.999Z,13.97
2019-05-01T08:23:21.336Z,14.05
2019-05-01T08:24:13.135Z,14.10
2019-05-01T08:25:04.536Z,14.15
2019-05-01T08:25:57.345Z,14.19
2019-05-01T08:26:48.650Z,14.26
2019-05-01T08:27:58.151Z,14.31
2019-05-01T08:29:10.854Z,14.39
2019-05-01T08:30:20.019Z,14.42
2019-05-01T08:31:33.926Z,14.52
2019-05-01T08:32:43.369Z,14.56
2019-05-01T08:33:59.627Z,14.59
2019-05-01T08:34:50.765Z,14.60
2019-05-01T08:35:41.377Z,14.60
2019-05-01T08:36:31.830Z,14.60
2019-05-01T08:37:22.899Z,14.61
2019-05-01T08:38:13.175Z,14.60
2019-05-01T08:39:08.975Z,14.60
2019-05-01T08:39:57.419Z,14.60
2019-05-01T08:40:50.652Z,14.58
2019-05-01T08:41:38.661Z,14.58
2019-05-01T08:42:30.197Z,14.58
2019-05-01T08:43:20.985Z,14.57
2019-05-01T08:44:11.512Z,14.57
2019-05-01T08:45:21.876Z,14.54
2019-05-01T08:46:30.834Z,14.54
2019-05-01T08:47:27.765Z,14.50
2019-05-01T08:48:37.695Z,14.47
2019-05-01T08:49:35.669Z,14.45
2019-05-01T08:50:26.314Z,14.44
2019-05-01T08:51:16.797Z,14.40
2019-05-01T08:52:12.561Z,14.39
2019-05-01T08:52:58.944Z,14.38
2019-05-01T08:53:52.706Z,14.35
2019-05-01T08:54:40.729Z,14.32
2019-05-01T08:55:32.359Z,14.30
2019-05-01T08:56:23.471Z,14.30
2019-05-01T08:57:13.756Z,14.28
2019-05-01T08:58:08.831Z,14.27
2019-05-01T08:58:55.835Z,14.27
2019-05-01T08:59:46.685Z,14.26
2019-05-01T09:00:41.182Z,14.26
2019-05-01T09:01:28.459Z,14.25
2019-05-01T09:02:19.102Z,14.25
2019-05-01T09:03:13.762Z,14.25
2019-05-01T09:04:12.722Z,14.25
2019-05-01T09:05:02.163Z,14.23
2019-05-01T09:05:44.760Z,14.21
2019-05-01T09:06:39.086Z,14.21
2019-05-01T09:07:24.989Z,14.18
2019-05-01T09:08:16.171Z,14.17
2019-05-01T09:09:08.216Z,14.15
2019-05-01T09:09:57.395Z,14.14
2019-05-01T09:10:49.675Z,14.15
2019-05-01T09:11:38.765Z,14.15
2019-05-01T09:12:29.466Z,14.15
2019-05-01T09:13:23.770Z,14.15
2019-05-01T09:14:09.576Z,14.16
2019-05-01T09:15:00.351Z,14.15
2019-05-01T09:15:51.374Z,14.18
2019-05-01T09:16:42.391Z,14.19
2019-05-01T09:17:33.063Z,14.20
2019-05-01T09:18:23.871Z,14.21
2019-05-01T09:19:15.428Z,14.23
2019-05-01T09:20:05.257Z,14.24
2019-05-01T09:20:55.921Z,14.25
2019-05-01T09:21:47.602Z,14.28
2019-05-01T09:22:37.970Z,14.30
2019-05-01T09:23:30.131Z,14.31
2019-05-01T09:24:23.230Z,14.33
2019-05-01T09:25:11.482Z,14.35
2019-05-01T09:26:14.822Z,14.38
2019-05-01T09:27:24.094Z,14.40
2019-05-01T09:28:14.682Z,14.43
2019-05-01T09:29:11.144Z,14.48
2019-05-01T09:30:00.774Z,14.51
2019-05-01T09:31:01.341Z,14.54
2019-05-01T09:31:45.282Z,14.59
2019-05-01T09:32:35.554Z,14.62
2019-05-01T09:33:30.761Z,14.65
2019-05-01T09:34:19.079Z,14.67
2019-05-01T09:35:15.457Z,14.71
2019-05-01T09:35:58.792Z,14.75
2019-05-01T09:36:49.730Z,14.80
2019-05-01T09:37:40.060Z,14.84
2019-05-01T09:38:30.975Z,14.91
2019-05-01T09:39:21.970Z,14.96
2019-05-01T09:40:13.436Z,15.00
2019-05-01T09:41:04.070Z,15.07
2019-05-01T09:41:55.169Z,15.13
2019-05-01T09:42:45.477Z,15.20
2019-05-01T09:43:37.053Z,15.25
2019-05-01T09:44:27.783Z,15.31
2019-05-01T09:45:18.461Z,15.38
2019-05-01T09:46:08.663Z,15.44
2019-05-01T09:46:59.895Z,15.49
2019-05-01T09:47:51.467Z,15.55
2019-05-01T09:48:42.142Z,15.58
2019-05-01T09:49:32.696Z,15.60
2019-05-01T09:50:26.003Z,15.60
2019-05-01T09:51:25.604Z,15.61
2019-05-01T09:52:24.944Z,15.61
2019-05-01T09:53:41.117Z,15.60
2019-05-01T09:54:51.601Z,15.59
2019-05-01T09:55:48.461Z,15.60
2019-05-01T09:56:39.453Z,15.60
2019-05-01T09:57:30.482Z,15.62
2019-05-01T09:58:20.456Z,15.66
2019-05-01T09:59:12.608Z,15.67
2019-05-01T10:00:01.145Z,15.71
2019-05-01T10:00:53.974Z,15.76
2019-05-01T10:01:44.906Z,15.79
2019-05-01T10:02:37.639Z,15.86
2019-05-01T10:03:27.605Z,15.92
2019-05-01T10:04:18.141Z,15.97
2019-05-01T10:05:09.020Z,16.05
2019-05-01T10:05:59.258Z,16.11
2019-05-01T10:06:52.216Z,16.18
2019-05-01T10:07:42.799Z,16.23
2019-05-01T10:08:34.926Z,16.29
2019-05-01T10:09:26.543Z,16.34
2019-05-01T10:10:15.031Z,16.39
2019-05-01T10:11:06.936Z,16.46
2019-05-01T10:11:57.593Z,16.50
2019-05-01T10:12:48.457Z,16.56
2019-05-01T10:13:39.409Z,16.61
2019-05-01T10:14:31.695Z,16.66
2019-05-01T10:15:20.799Z,16.70
2019-05-01T10:16:11.108Z,16.75
2019-05-01T10:17:02.283Z,16.80
2019-05-01T10:17:53.231Z,16.84
2019-05-01T10:19:22.250Z,16.94
2019-05-01T10:20:13.575Z,16.97
2019-05-01T10:21:03.971Z,17.00
2019-05-01T10:21:57.864Z,17.02
2019-05-01T10:22:46.246Z,17.07
2019-05-01T10:23:37.872Z,17.09
2019-05-01T10:24:31.966Z,17.12
2019-05-01T10:25:19.693Z,17.15
2019-05-01T10:26:10.366Z,17.18
2019-05-01T10:27:01.546Z,17.22
2019-05-01T10:27:56.489Z,17.25
2019-05-01T10:28:52.695Z,17.29
2019-05-01T10:30:03.146Z,17.32
2019-05-01T10:31:17.426Z,17.37
2019-05-01T10:32:16.888Z,17.40
2019-05-01T10:33:13.004Z,17.41
2019-05-01T10:34:12.441Z,17.42
2019-05-01T10:35:22.442Z,17.43
2019-05-01T10:36:49.862Z,17.42
2019-05-01T10:37:39.753Z,17.43
2019-05-01T10:38:30.094Z,17.43
2019-05-01T10:39:21.755Z,17.42
2019-05-01T10:40:12.379Z,17.40
2019-05-01T10:41:04.323Z,17.39
2019-05-01T10:41:53.836Z,17.38
2019-05-01T10:42:44.313Z,17.36
2019-05-01T10:43:34.993Z,17.35
2019-05-01T10:44:26.389Z,17.34
2019-05-01T10:45:18.435Z,17.32
2019-05-01T10:46:10.033Z,17.31
2019-05-01T10:47:02.159Z,17.28
2019-05-01T10:47:51.642Z,17.28
2019-05-01T10:48:42.177Z,17.28
2019-05-01T10:49:35.131Z,17.28
2019-05-01T10:50:25.728Z,17.29
2019-05-01T10:51:16.417Z,17.32
2019-05-01T10:52:13.941Z,17.34
2019-05-01T10:52:57.879Z,17.36
2019-05-01T10:53:48.668Z,17.38
2019-05-01T10:54:39.356Z,17.39
2019-05-01T10:55:29.874Z,17.39
2019-05-01T10:56:20.654Z,17.38
2019-05-01T10:57:13.009Z,17.38
2019-05-01T10:58:03.310Z,17.37
2019-05-01T10:58:51.893Z,17.35
2019-05-01T10:59:42.818Z,17.33
2019-05-01T11:00:33.961Z,17.29
2019-05-01T11:01:44.082Z,17.27
2019-05-01T11:02:34.657Z,17.24
2019-05-01T11:03:24.951Z,17.20
2019-05-01T11:04:16.435Z,17.18
2019-05-01T11:05:06.746Z,17.14
2019-05-01T11:05:57.368Z,17.12
2019-05-01T11:06:47.977Z,17.10
2019-05-01T11:07:40.121Z,17.09
2019-05-01T11:08:31.100Z,17.08
2019-05-01T11:09:23.620Z,17.10
2019-05-01T11:10:14.322Z,17.11
2019-05-01T11:11:04.740Z,17.13
2019-05-01T11:11:55.300Z,17.14
2019-05-01T11:12:46.477Z,17.16
2019-05-01T11:13:37.514Z,17.18
2019-05-01T11:14:28.319Z,17.22
2019-05-01T11:15:19.497Z,17.25
2019-05-01T11:16:10.403Z,17.29
2019-05-01T11:17:00.620Z,17.35
2019-05-01T11:17:51.334Z,17.42
2019-05-01T11:18:42.921Z,17.49
2019-05-01T11:19:33.839Z,17.58
2019-05-01T11:20:25.240Z,17.69
2019-05-01T11:21:16.302Z,17.80
2019-05-01T11:22:08.630Z,17.94
2019-05-01T11:22:59.382Z,18.10
2019-05-01T11:23:49.992Z,18.25
2019-05-01T11:24:41.233Z,18.47
2019-05-01T11:25:36.283Z,18.69
2019-05-01T11:26:26.295Z,18.95
2019-05-01T11:27:17.100Z,19.26
2019-05-01T11:28:07.297Z,19.57
2019-05-01T11:29:00.370Z,19.96
2019-05-01T11:29:50.789Z,20.34
2019-05-01T11:30:42.225Z,20.79
2019-05-01T11:31:58.018Z,21.21
2019-05-01T11:32:54.692Z,21.70
2019-05-01T11:34:04.452Z,22.38
2019-05-01T11:35:19.939Z,22.89
2019-05-01T11:36:24.797Z,23.43
2019-05-01T11:37:50.523Z,24.59
2019-05-01T11:39:03.071Z,25.35
2019-05-01T11:39:57.252Z,25.86
2019-05-01T11:40:53.013Z,25.86
2019-05-01T11:41:51.488Z,26.29